sensor_id;sensor_type;location;lat;lon;timestamp;temperature;humidity
39453;DHT22;25154;-33.684;151.102;2022-10-31T00:01:56;27.00;98.60
39453;DHT22;25154;-33.684;151.102;2022-10-31T00:06:58;27.20;99.60
39453;DHT22;25154;-33.684;151.102;2022-10-31T00:12:00;27.50;98.50
39453;DHT22;25154;-33.684;151.102;2022-10-31T00:17:02;28.30;98.50
39453;DHT22;25154;-33.684;151.102;2022-10-31T00:22:05;27.90;98.20
39453;DHT22;25154;-33.684;151.102;2022-10-31T00:27:07;27.60;98.00
39453;DHT22;25154;-33.684;151.102;2022-10-31T00:32:09;28.10;98.40
39453;DHT22;25154;-33.684;151.102;2022-10-31T00:37:12;29.30;96.40
39453;DHT22;25154;-33.684;151.102;2022-10-31T00:42:14;29.60;96.00
39453;DHT22;25154;-33.684;151.102;2022-10-31T00:47:16;30.20;95.80
39453;DHT22;25154;-33.684;151.102;2022-10-31T00:52:19;30.60;95.20
39453;DHT22;25154;-33.684;151.102;2022-10-31T00:57:21;31.10;94.00
39453;DHT22;25154;-33.684;151.102;2022-10-31T01:02:23;31.20;94.40
39453;DHT22;25154;-33.684;151.102;2022-10-31T01:07:26;30.60;93.40
39453;DHT22;25154;-33.684;151.102;2022-10-31T01:12:28;30.90;94.10
39453;DHT22;25154;-33.684;151.102;2022-10-31T01:17:30;30.60;94.30
39453;DHT22;25154;-33.684;151.102;2022-10-31T01:22:33;30.30;94.10
39453;DHT22;25154;-33.684;151.102;2022-10-31T01:27:36;29.00;95.70
39453;DHT22;25154;-33.684;151.102;2022-10-31T01:32:39;28.50;96.90
39453;DHT22;25154;-33.684;151.102;2022-10-31T01:37:43;28.40;98.40
39453;DHT22;25154;-33.684;151.102;2022-10-31T01:42:45;28.60;97.50
39453;DHT22;25154;-33.684;151.102;2022-10-31T01:47:48;29.90;97.50
39453;DHT22;25154;-33.684;151.102;2022-10-31T01:52:52;30.00;97.40
39453;DHT22;25154;-33.684;151.102;2022-10-31T01:57:59;29.60;97.20
39453;DHT22;25154;-33.684;151.102;2022-10-31T02:03:04;28.90;97.80
39453;DHT22;25154;-33.684;151.102;2022-10-31T02:13:09;27.70;99.80
39453;DHT22;25154;-33.684;151.102;2022-10-31T02:18:12;27.50;99.90
39453;DHT22;25154;-33.684;151.102;2022-10-31T02:34:34;27.20;99.90
39453;DHT22;25154;-33.684;151.102;2022-10-31T02:39:56;27.10;99.90
39453;DHT22;25154;-33.684;151.102;2022-10-31T02:50:24;26.90;99.90
39453;DHT22;25154;-33.684;151.102;2022-10-31T03:00:46;26.70;99.90
39453;DHT22;25154;-33.684;151.102;2022-10-31T03:11:24;26.60;99.90
39453;DHT22;25154;-33.684;151.102;2022-10-31T03:16:49;26.80;99.90
39453;DHT22;25154;-33.684;151.102;2022-10-31T03:27:18;26.60;99.90
39453;DHT22;25154;-33.684;151.102;2022-10-31T03:32:26;26.30;99.90
39453;DHT22;25154;-33.684;151.102;2022-10-31T03:37:32;26.00;99.90
39453;DHT22;25154;-33.684;151.102;2022-10-31T03:42:40;25.80;99.90
39453;DHT22;25154;-33.684;151.102;2022-10-31T03:47:44;25.60;99.90
39453;DHT22;25154;-33.684;151.102;2022-10-31T03:52:55;25.50;99.90
39453;DHT22;25154;-33.684;151.102;2022-10-31T03:58:32;25.60;99.90
39453;DHT22;25154;-33.684;151.102;2022-10-31T04:03:39;25.50;99.90
39453;DHT22;25154;-33.684;151.102;2022-10-31T04:09:02;26.80;99.90
39453;DHT22;25154;-33.684;151.102;2022-10-31T04:14:05;26.90;99.90
39453;DHT22;25154;-33.684;151.102;2022-10-31T04:19:08;26.80;99.90
39453;DHT22;25154;-33.684;151.102;2022-10-31T04:24:11;26.20;99.90
39453;DHT22;25154;-33.684;151.102;2022-10-31T04:29:13;25.80;99.90
39453;DHT22;25154;-33.684;151.102;2022-10-31T04:34:15;25.70;99.90
39453;DHT22;25154;-33.684;151.102;2022-10-31T04:39:23;25.60;99.90
39453;DHT22;25154;-33.684;151.102;2022-10-31T04:44:25;25.40;99.90
39453;DHT22;25154;-33.684;151.102;2022-10-31T04:49:31;25.30;99.90
39453;DHT22;25154;-33.684;151.102;2022-10-31T04:54:34;24.50;99.90
39453;DHT22;25154;-33.684;151.102;2022-10-31T04:59:36;25.40;99.90
39453;DHT22;25154;-33.684;151.102;2022-10-31T05:04:39;25.60;99.90
39453;DHT22;25154;-33.684;151.102;2022-10-31T05:09:42;25.80;99.90
39453;DHT22;25154;-33.684;151.102;2022-10-31T05:14:44;25.80;99.90
39453;DHT22;25154;-33.684;151.102;2022-10-31T05:19:47;25.40;99.90
39453;DHT22;25154;-33.684;151.102;2022-10-31T05:24:50;25.60;99.90
39453;DHT22;25154;-33.684;151.102;2022-10-31T05:29:52;27.90;99.90
39453;DHT22;25154;-33.684;151.102;2022-10-31T05:34:56;31.20;99.90
39453;DHT22;25154;-33.684;151.102;2022-10-31T05:39:58;32.80;97.90
39453;DHT22;25154;-33.684;151.102;2022-10-31T05:45:01;32.20;96.30
39453;DHT22;25154;-33.684;151.102;2022-10-31T05:50:09;31.90;97.50
39453;DHT22;25154;-33.684;151.102;2022-10-31T05:55:11;32.80;95.80
39453;DHT22;25154;-33.684;151.102;2022-10-31T06:00:13;31.70;96.00
39453;DHT22;25154;-33.684;151.102;2022-10-31T06:05:16;30.90;96.70
39453;DHT22;25154;-33.684;151.102;2022-10-31T06:10:18;31.20;97.20
39453;DHT22;25154;-33.684;151.102;2022-10-31T06:15:22;31.30;96.80
39453;DHT22;25154;-33.684;151.102;2022-10-31T06:20:24;30.40;98.20
39453;DHT22;25154;-33.684;151.102;2022-10-31T06:25:27;29.00;99.20
39453;DHT22;25154;-33.684;151.102;2022-10-31T06:30:31;27.70;99.90
39453;DHT22;25154;-33.684;151.102;2022-10-31T06:35:34;26.90;99.90
39453;DHT22;25154;-33.684;151.102;2022-10-31T06:40:37;26.40;99.90
39453;DHT22;25154;-33.684;151.102;2022-10-31T06:45:39;26.00;99.90
39453;DHT22;25154;-33.684;151.102;2022-10-31T06:50:41;25.70;99.90
39453;DHT22;25154;-33.684;151.102;2022-10-31T06:55:44;25.50;99.90
39453;DHT22;25154;-33.684;151.102;2022-10-31T07:00:46;25.40;99.90
39453;DHT22;25154;-33.684;151.102;2022-10-31T07:05:48;25.40;99.90
39453;DHT22;25154;-33.684;151.102;2022-10-31T07:10:55;25.30;99.90
39453;DHT22;25154;-33.684;151.102;2022-10-31T07:16:02;25.30;99.90
39453;DHT22;25154;-33.684;151.102;2022-10-31T07:21:05;25.10;99.90
39453;DHT22;25154;-33.684;151.102;2022-10-31T07:26:09;25.00;99.90
39453;DHT22;25154;-33.684;151.102;2022-10-31T07:31:11;25.00;99.90
39453;DHT22;25154;-33.684;151.102;2022-10-31T07:36:13;24.90;99.90
39453;DHT22;25154;-33.684;151.102;2022-10-31T07:41:17;25.00;99.90
39453;DHT22;25154;-33.684;151.102;2022-10-31T07:46:19;25.00;99.90
39453;DHT22;25154;-33.684;151.102;2022-10-31T07:51:21;24.90;99.90
39453;DHT22;25154;-33.684;151.102;2022-10-31T07:56:25;24.90;99.90
39453;DHT22;25154;-33.684;151.102;2022-10-31T08:01:27;24.80;99.90
39453;DHT22;25154;-33.684;151.102;2022-10-31T08:06:30;24.80;99.90
39453;DHT22;25154;-33.684;151.102;2022-10-31T08:11:32;24.70;99.90
39453;DHT22;25154;-33.684;151.102;2022-10-31T08:16:34;24.80;99.90
39453;DHT22;25154;-33.684;151.102;2022-10-31T08:21:37;24.70;99.90
39453;DHT22;25154;-33.684;151.102;2022-10-31T08:26:39;24.60;99.90
39453;DHT22;25154;-33.684;151.102;2022-10-31T08:31:42;24.50;99.90
39453;DHT22;25154;-33.684;151.102;2022-10-31T08:36:44;24.40;99.90
39453;DHT22;25154;-33.684;151.102;2022-10-31T08:41:47;24.40;99.90
39453;DHT22;25154;-33.684;151.102;2022-10-31T08:46:49;24.40;99.90
39453;DHT22;25154;-33.684;151.102;2022-10-31T08:51:52;24.30;99.90
39453;DHT22;25154;-33.684;151.102;2022-10-31T08:56:55;24.20;99.90
39453;DHT22;25154;-33.684;151.102;2022-10-31T09:01:57;24.00;99.90
39453;DHT22;25154;-33.684;151.102;2022-10-31T09:06:59;23.90;99.90
39453;DHT22;25154;-33.684;151.102;2022-10-31T09:12:02;23.80;99.90
39453;DHT22;25154;-33.684;151.102;2022-10-31T09:17:04;23.70;99.90
39453;DHT22;25154;-33.684;151.102;2022-10-31T09:22:06;23.50;99.90
39453;DHT22;25154;-33.684;151.102;2022-10-31T09:27:09;23.40;99.90
39453;DHT22;25154;-33.684;151.102;2022-10-31T09:32:11;23.30;99.90
39453;DHT22;25154;-33.684;151.102;2022-10-31T09:37:13;23.20;99.90
39453;DHT22;25154;-33.684;151.102;2022-10-31T09:53:03;23.00;99.90
39453;DHT22;25154;-33.684;151.102;2022-10-31T09:58:18;23.00;99.90
39453;DHT22;25154;-33.684;151.102;2022-10-31T10:03:42;22.90;99.90
39453;DHT22;25154;-33.684;151.102;2022-10-31T10:08:46;22.80;99.90
39453;DHT22;25154;-33.684;151.102;2022-10-31T10:25:14;22.30;99.90
39453;DHT22;25154;-33.684;151.102;2022-10-31T10:30:35;22.30;99.90
39453;DHT22;25154;-33.684;151.102;2022-10-31T10:35:52;22.30;99.90
39453;DHT22;25154;-33.684;151.102;2022-10-31T10:40:55;22.20;99.90
39453;DHT22;25154;-33.684;151.102;2022-10-31T10:57:16;21.90;99.90
39453;DHT22;25154;-33.684;151.102;2022-10-31T11:02:31;21.70;99.90
39453;DHT22;25154;-33.684;151.102;2022-10-31T11:07:39;21.60;99.90
39453;DHT22;25154;-33.684;151.102;2022-10-31T11:12:44;21.40;99.90
39453;DHT22;25154;-33.684;151.102;2022-10-31T11:17:50;21.40;99.90
39453;DHT22;25154;-33.684;151.102;2022-10-31T11:23:19;21.50;99.90
39453;DHT22;25154;-33.684;151.102;2022-10-31T11:28:23;21.50;99.90
39453;DHT22;25154;-33.684;151.102;2022-10-31T11:38:51;21.50;99.90
39453;DHT22;25154;-33.684;151.102;2022-10-31T11:44:00;21.50;99.90
39453;DHT22;25154;-33.684;151.102;2022-10-31T11:49:05;21.50;99.90
39453;DHT22;25154;-33.684;151.102;2022-10-31T11:54:29;21.50;99.90
39453;DHT22;25154;-33.684;151.102;2022-10-31T11:59:32;21.30;99.90
39453;DHT22;25154;-33.684;151.102;2022-10-31T12:04:41;20.90;99.90
39453;DHT22;25154;-33.684;151.102;2022-10-31T12:09:45;20.50;99.90
39453;DHT22;25154;-33.684;151.102;2022-10-31T12:20:21;20.00;99.90
39453;DHT22;25154;-33.684;151.102;2022-10-31T12:30:48;19.80;99.90
39453;DHT22;25154;-33.684;151.102;2022-10-31T12:41:38;19.60;99.90
39453;DHT22;25154;-33.684;151.102;2022-10-31T12:47:26;19.60;99.90
39453;DHT22;25154;-33.684;151.102;2022-10-31T12:52:47;19.50;99.90
39453;DHT22;25154;-33.684;151.102;2022-10-31T12:57:58;19.60;99.90
39453;DHT22;25154;-33.684;151.102;2022-10-31T13:14:26;19.80;99.90
39453;DHT22;25154;-33.684;151.102;2022-10-31T13:24:13;20.10;99.90
39453;DHT22;25154;-33.684;151.102;2022-10-31T13:34:36;20.40;99.90
39453;DHT22;25154;-33.684;151.102;2022-10-31T13:45:16;20.70;99.90
39453;DHT22;25154;-33.684;151.102;2022-10-31T13:50:36;20.80;99.90
39453;DHT22;25154;-33.684;151.102;2022-10-31T14:06:16;20.70;99.90
39453;DHT22;25154;-33.684;151.102;2022-10-31T14:11:28;20.80;99.90
39453;DHT22;25154;-33.684;151.102;2022-10-31T14:16:32;20.80;99.90
39453;DHT22;25154;-33.684;151.102;2022-10-31T14:21:43;20.90;99.90
39453;DHT22;25154;-33.684;151.102;2022-10-31T14:32:24;21.00;99.90
39453;DHT22;25154;-33.684;151.102;2022-10-31T14:53:54;21.00;99.90
39453;DHT22;25154;-33.684;151.102;2022-10-31T14:59:00;20.90;99.90
39453;DHT22;25154;-33.684;151.102;2022-10-31T15:09:28;20.80;99.90
39453;DHT22;25154;-33.684;151.102;2022-10-31T15:14:31;20.90;99.90
39453;DHT22;25154;-33.684;151.102;2022-10-31T15:19:34;20.90;99.90
39453;DHT22;25154;-33.684;151.102;2022-10-31T15:24:39;20.90;99.90
39453;DHT22;25154;-33.684;151.102;2022-10-31T15:29:52;20.90;99.90
39453;DHT22;25154;-33.684;151.102;2022-10-31T15:34:56;20.90;99.90
39453;DHT22;25154;-33.684;151.102;2022-10-31T15:40:07;20.90;99.90
39453;DHT22;25154;-33.684;151.102;2022-10-31T15:50:45;20.90;99.90
39453;DHT22;25154;-33.684;151.102;2022-10-31T15:55:55;20.90;99.90
39453;DHT22;25154;-33.684;151.102;2022-10-31T16:01:04;21.00;99.90
39453;DHT22;25154;-33.684;151.102;2022-10-31T16:06:20;21.00;99.90
39453;DHT22;25154;-33.684;151.102;2022-10-31T16:11:37;20.80;99.90
39453;DHT22;25154;-33.684;151.102;2022-10-31T16:16:47;20.90;99.90
39453;DHT22;25154;-33.684;151.102;2022-10-31T16:21:55;20.90;99.90
39453;DHT22;25154;-33.684;151.102;2022-10-31T16:27:15;20.90;99.90
39453;DHT22;25154;-33.684;151.102;2022-10-31T16:32:51;20.90;99.90
39453;DHT22;25154;-33.684;151.102;2022-10-31T16:37:54;20.80;99.90
39453;DHT22;25154;-33.684;151.102;2022-10-31T16:42:58;20.80;99.90
39453;DHT22;25154;-33.684;151.102;2022-10-31T16:48:14;20.70;99.90
39453;DHT22;25154;-33.684;151.102;2022-10-31T16:53:17;20.70;99.90
39453;DHT22;25154;-33.684;151.102;2022-10-31T16:58:30;20.70;99.90
39453;DHT22;25154;-33.684;151.102;2022-10-31T17:03:34;20.70;99.90
39453;DHT22;25154;-33.684;151.102;2022-10-31T17:08:37;20.80;99.90
39453;DHT22;25154;-33.684;151.102;2022-10-31T17:13:39;20.80;99.90
39453;DHT22;25154;-33.684;151.102;2022-10-31T17:18:41;20.70;99.90
39453;DHT22;25154;-33.684;151.102;2022-10-31T17:23:48;20.70;99.90
39453;DHT22;25154;-33.684;151.102;2022-10-31T17:28:50;20.80;99.90
39453;DHT22;25154;-33.684;151.102;2022-10-31T17:33:55;20.80;99.90
39453;DHT22;25154;-33.684;151.102;2022-10-31T17:38:58;20.80;99.90
39453;DHT22;25154;-33.684;151.102;2022-10-31T17:44:00;20.80;99.90
39453;DHT22;25154;-33.684;151.102;2022-10-31T17:49:03;20.80;99.90
39453;DHT22;25154;-33.684;151.102;2022-10-31T17:54:08;20.70;99.90
39453;DHT22;25154;-33.684;151.102;2022-10-31T17:59:11;20.70;99.90
39453;DHT22;25154;-33.684;151.102;2022-10-31T18:04:13;20.80;99.90
39453;DHT22;25154;-33.684;151.102;2022-10-31T18:09:16;20.80;99.90
39453;DHT22;25154;-33.684;151.102;2022-10-31T18:14:18;20.70;99.90
39453;DHT22;25154;-33.684;151.102;2022-10-31T18:19:20;20.60;99.90
39453;DHT22;25154;-33.684;151.102;2022-10-31T18:24:23;20.20;99.90
39453;DHT22;25154;-33.684;151.102;2022-10-31T18:29:25;19.60;99.90
39453;DHT22;25154;-33.684;151.102;2022-10-31T18:34:27;19.20;99.90
39453;DHT22;25154;-33.684;151.102;2022-10-31T18:39:30;19.00;99.90
39453;DHT22;25154;-33.684;151.102;2022-10-31T18:44:32;18.70;99.90
39453;DHT22;25154;-33.684;151.102;2022-10-31T18:49:34;18.60;99.90
39453;DHT22;25154;-33.684;151.102;2022-10-31T18:54:37;18.40;99.90
39453;DHT22;25154;-33.684;151.102;2022-10-31T18:59:39;18.30;99.90
39453;DHT22;25154;-33.684;151.102;2022-10-31T19:04:41;18.10;99.90
39453;DHT22;25154;-33.684;151.102;2022-10-31T19:09:44;18.00;99.90
39453;DHT22;25154;-33.684;151.102;2022-10-31T19:14:46;17.80;99.90
39453;DHT22;25154;-33.684;151.102;2022-10-31T19:19:49;18.80;99.90
39453;DHT22;25154;-33.684;151.102;2022-10-31T19:24:52;17.50;99.90
39453;DHT22;25154;-33.684;151.102;2022-10-31T19:29:54;17.40;99.90
39453;DHT22;25154;-33.684;151.102;2022-10-31T19:34:56;17.30;99.90
39453;DHT22;25154;-33.684;151.102;2022-10-31T19:39:59;17.30;99.90
39453;DHT22;25154;-33.684;151.102;2022-10-31T19:45:01;17.30;99.90
39453;DHT22;25154;-33.684;151.102;2022-10-31T19:50:04;17.30;99.90
39453;DHT22;25154;-33.684;151.102;2022-10-31T19:55:07;17.30;99.90
39453;DHT22;25154;-33.684;151.102;2022-10-31T20:00:10;17.30;99.90
39453;DHT22;25154;-33.684;151.102;2022-10-31T20:05:12;17.30;99.90
39453;DHT22;25154;-33.684;151.102;2022-10-31T20:10:15;17.30;99.90
39453;DHT22;25154;-33.684;151.102;2022-10-31T20:15:17;17.30;99.90
39453;DHT22;25154;-33.684;151.102;2022-10-31T20:20:20;17.40;99.90
39453;DHT22;25154;-33.684;151.102;2022-10-31T20:25:22;17.40;99.90
39453;DHT22;25154;-33.684;151.102;2022-10-31T20:30:24;17.40;99.90
39453;DHT22;25154;-33.684;151.102;2022-10-31T20:35:27;17.30;99.90
39453;DHT22;25154;-33.684;151.102;2022-10-31T20:40:29;17.20;99.90
39453;DHT22;25154;-33.684;151.102;2022-10-31T20:45:32;17.30;99.90
39453;DHT22;25154;-33.684;151.102;2022-10-31T20:50:37;17.40;99.90
39453;DHT22;25154;-33.684;151.102;2022-10-31T20:55:39;17.50;99.90
39453;DHT22;25154;-33.684;151.102;2022-10-31T21:00:42;17.50;99.90
39453;DHT22;25154;-33.684;151.102;2022-10-31T21:05:58;17.40;99.90
39453;DHT22;25154;-33.684;151.102;2022-10-31T21:11:11;17.50;99.90
39453;DHT22;25154;-33.684;151.102;2022-10-31T21:16:16;17.60;99.90
39453;DHT22;25154;-33.684;151.102;2022-10-31T21:21:22;17.70;99.90
39453;DHT22;25154;-33.684;151.102;2022-10-31T21:26:27;17.80;99.90
39453;DHT22;25154;-33.684;151.102;2022-10-31T21:31:29;18.00;99.90
39453;DHT22;25154;-33.684;151.102;2022-10-31T21:36:32;18.10;99.90
39453;DHT22;25154;-33.684;151.102;2022-10-31T21:41:35;18.20;99.90
39453;DHT22;25154;-33.684;151.102;2022-10-31T21:46:39;18.40;99.80
39453;DHT22;25154;-33.684;151.102;2022-10-31T21:51:41;18.40;99.90
39453;DHT22;25154;-33.684;151.102;2022-10-31T21:56:44;18.70;99.50
39453;DHT22;25154;-33.684;151.102;2022-10-31T22:01:48;18.70;99.10
39453;DHT22;25154;-33.684;151.102;2022-10-31T22:06:51;18.70;98.00
39453;DHT22;25154;-33.684;151.102;2022-10-31T22:11:53;18.50;97.40
39453;DHT22;25154;-33.684;151.102;2022-10-31T22:16:55;18.30;98.10
39453;DHT22;25154;-33.684;151.102;2022-10-31T22:21:58;18.50;98.30
39453;DHT22;25154;-33.684;151.102;2022-10-31T22:27:00;18.50;98.00
39453;DHT22;25154;-33.684;151.102;2022-10-31T22:32:02;18.60;98.00
39453;DHT22;25154;-33.684;151.102;2022-10-31T22:37:05;19.10;98.70
39453;DHT22;25154;-33.684;151.102;2022-10-31T22:42:07;18.90;96.70
39453;DHT22;25154;-33.684;151.102;2022-10-31T22:47:09;18.90;97.90
39453;DHT22;25154;-33.684;151.102;2022-10-31T22:52:12;19.10;97.40
39453;DHT22;25154;-33.684;151.102;2022-10-31T22:57:14;19.10;96.70
39453;DHT22;25154;-33.684;151.102;2022-10-31T23:02:16;19.30;96.80
39453;DHT22;25154;-33.684;151.102;2022-10-31T23:07:19;19.50;96.10
39453;DHT22;25154;-33.684;151.102;2022-10-31T23:12:21;19.10;96.10
39453;DHT22;25154;-33.684;151.102;2022-10-31T23:17:42;19.30;96.30
39453;DHT22;25154;-33.684;151.102;2022-10-31T23:22:44;19.40;95.20
39453;DHT22;25154;-33.684;151.102;2022-10-31T23:27:47;19.50;95.10
39453;DHT22;25154;-33.684;151.102;2022-10-31T23:32:49;20.00;95.10
39453;DHT22;25154;-33.684;151.102;2022-10-31T23:37:51;20.20;95.00
39453;DHT22;25154;-33.684;151.102;2022-10-31T23:42:53;20.10;95.80
39453;DHT22;25154;-33.684;151.102;2022-10-31T23:47:56;20.10;93.70
39453;DHT22;25154;-33.684;151.102;2022-10-31T23:52:58;20.00;93.80
39453;DHT22;25154;-33.684;151.102;2022-10-31T23:58:01;20.10;93.90
